Time;durP1;ratioP1;P1;durP2;ratioP2;P2;SDS_P1;SDS_P2;PMS_P1;PMS_P2;Temp;Humidity;BMP_temperature;BMP_pressure;BME280_temperature;BME280_humidity;BME280_pressure;Samples;Min_cycle;Max_cycle;Signal;HPM_P1;HPM_P2
2023/02/25 00:01:27;;;;;;;4.13;1.80;;;18.70;40.30;;;;;;5071200;28;20257;-60
2023/02/25 00:03:55;;;;;;;4.10;1.77;;;18.70;40.30;;;;;;5071485;28;20761;-60
2023/02/25 00:06:24;;;;;;;5.50;2.08;;;18.70;40.30;;;;;;5071892;28;20191;-68
2023/02/25 00:08:53;;;;;;;4.55;1.80;;;18.70;40.30;;;;;;5071592;28;20187;-61
2023/02/25 00:11:20;;;;;;;4.82;1.88;;;18.70;40.30;;;;;;5074365;28;20197;-61
2023/02/25 00:13:47;;;;;;;2.88;1.42;;;18.70;40.30;;;;;;5075590;28;20236;-60
2023/02/25 00:16:16;;;;;;;4.32;1.67;;;18.70;40.30;;;;;;5074830;28;20191;-67
2023/02/25 00:18:45;;;;;;;8.32;2.13;;;18.70;40.30;;;;;;5075073;28;20221;-60
2023/02/25 00:21:14;;;;;;;4.50;1.73;;;18.60;40.20;;;;;;5075538;28;20186;-61
2023/02/25 00:23:42;;;;;;;6.85;1.95;;;18.60;40.20;;;;;;5075104;28;20670;-60
2023/02/25 00:26:10;;;;;;;5.63;1.80;;;18.70;40.30;;;;;;5075360;28;20259;-65
2023/02/25 00:28:40;;;;;;;5.18;1.75;;;18.60;40.10;;;;;;5075178;28;20219;-59
2023/02/25 00:31:09;;;;;;;5.03;1.65;;;18.60;40.10;;;;;;5074954;28;20233;-65
2023/02/25 00:33:40;;;;;;;6.03;2.00;;;18.60;40.10;;;;;;5075128;28;20292;-68
2023/02/25 00:36:09;;;;;;;5.35;1.88;;;18.60;40.00;;;;;;5075212;28;20187;-70
2023/02/25 00:38:36;;;;;;;3.67;1.55;;;18.60;40.10;;;;;;5075334;28;20272;-71
2023/02/25 00:41:11;;;;;;;7.35;1.80;;;18.60;40.00;;;;;;5075135;28;20191;-69
2023/02/25 00:43:41;;;;;;;6.53;1.60;;;18.60;40.00;;;;;;5074554;28;20296;-60
2023/02/25 00:46:08;;;;;;;4.15;1.50;;;18.60;39.90;;;;;;5073050;28;20679;-61
2023/02/25 00:48:37;;;;;;;5.25;1.85;;;18.60;39.90;;;;;;5074834;28;20247;-63
2023/02/25 00:51:09;;;;;;;5.28;1.67;;;18.60;39.90;;;;;;5074433;28;20653;-61
2023/02/25 00:53:37;;;;;;;6.13;1.63;;;18.50;39.80;;;;;;5074492;28;20226;-61
2023/02/25 00:56:06;;;;;;;6.80;1.80;;;18.50;40.50;;;;;;5074939;28;20235;-61
2023/02/25 00:58:35;;;;;;;4.47;1.63;;;18.60;39.80;;;;;;5075154;28;20221;-60
2023/02/25 01:01:03;;;;;;;2.92;1.25;;;18.50;39.80;;;;;;5074054;28;20193;-60
2023/02/25 01:03:30;;;;;;;7.20;1.70;;;18.50;39.70;;;;;;5074601;28;20234;-66
2023/02/25 01:05:58;;;;;;;5.30;1.70;;;18.50;39.80;;;;;;5074293;28;20187;-61
2023/02/25 01:08:25;;;;;;;3.40;1.30;;;18.50;40.40;;;;;;5074788;28;20218;-63
2023/02/25 01:10:53;;;;;;;8.68;1.60;;;18.50;39.70;;;;;;5074600;28;20338;-64
2023/02/25 01:13:20;;;;;;;6.05;1.70;;;18.50;39.60;;;;;;5074249;28;20301;-64
2023/02/25 01:15:47;;;;;;;4.28;1.40;;;18.50;39.60;;;;;;5073997;28;20252;-62
2023/02/25 01:18:14;;;;;;;3.42;1.50;;;18.40;39.60;;;;;;5073861;28;20712;-60
2023/02/25 01:20:41;;;;;;;6.90;1.50;;;18.50;39.70;;;;;;5073762;28;20234;-65
2023/02/25 01:23:09;;;;;;;3.00;1.38;;;18.40;39.50;;;;;;5074242;28;20226;-60
2023/02/25 01:25:40;;;;;;;5.55;1.30;;;18.40;39.50;;;;;;5074308;28;20182;-60
2023/02/25 01:28:07;;;;;;;4.55;1.67;;;18.40;39.60;;;;;;5074435;28;20218;-60
2023/02/25 01:30:36;;;;;;;5.60;1.63;;;18.40;39.50;;;;;;5073832;28;20187;-63
2023/02/25 01:33:03;;;;;;;4.20;1.35;;;18.50;39.60;;;;;;5073458;28;20222;-64
2023/02/25 01:35:30;;;;;;;3.08;1.30;;;18.40;39.50;;;;;;5073720;28;20183;-61
2023/02/25 01:37:57;;;;;;;5.72;1.40;;;18.40;39.40;;;;;;5074040;28;20234;-64
2023/02/25 01:40:25;;;;;;;3.13;1.40;;;18.40;40.10;;;;;;5074016;28;20187;-65
2023/02/25 01:42:53;;;;;;;4.20;1.40;;;18.40;39.40;;;;;;5073698;28;20749;-62
2023/02/25 01:45:42;;;;;;;4.35;1.40;;;18.40;39.40;;;;;;5073944;28;20191;-66
2023/02/25 01:48:15;;;;;;;5.63;1.52;;;18.40;39.40;;;;;;5073940;28;20223;-66
2023/02/25 01:50:46;;;;;;;4.35;1.38;;;18.40;39.40;;;;;;5073431;28;20728;-61
2023/02/25 01:53:15;;;;;;;4.35;1.65;;;18.40;39.40;;;;;;5073639;28;20305;-66
2023/02/25 01:55:44;;;;;;;4.75;1.40;;;18.40;39.40;;;;;;5073511;28;20182;-61
2023/02/25 01:58:13;;;;;;;4.20;1.65;;;18.40;39.40;;;;;;5070559;28;20619;-60
2023/02/25 02:00:41;;;;;;;5.13;1.23;;;18.40;39.40;;;;;;5068980;28;20726;-62
2023/02/25 02:03:14;;;;;;;6.50;1.10;;;18.30;39.20;;;;;;5072885;28;20241;-60
2023/02/25 02:05:57;;;;;;;2.85;1.30;;;18.40;39.40;;;;;;5072823;28;20225;-63
2023/02/25 02:08:25;;;;;;;3.13;1.15;;;18.40;39.30;;;;;;5073123;28;20223;-61
2023/02/25 02:10:55;;;;;;;3.47;1.10;;;18.40;39.30;;;;;;5073106;28;20279;-65
2023/02/25 02:13:22;;;;;;;4.18;1.58;;;18.30;39.20;;;;;;5073059;28;20302;-62
2023/02/25 02:16:02;;;;;;;5.43;1.20;;;18.40;39.30;;;;;;5071860;28;20275;-59
2023/02/25 02:18:33;;;;;;;3.53;1.30;;;18.30;39.20;;;;;;5081721;28;20225;-59
2023/02/25 02:21:17;;;;;;;5.43;1.52;;;18.30;39.20;;;;;;5090773;28;20197;-66
2023/02/25 02:24:24;;;;;;;3.65;1.33;;;18.30;39.20;;;;;;5072843;28;20244;-60
2023/02/25 02:27:01;;;;;;;3.35;1.40;;;18.30;39.10;;;;;;5038743;28;20256;-61
2023/02/25 02:30:12;;;;;;;2.03;1.00;;;18.30;39.20;;;;;;5072356;28;20186;-60
2023/02/25 02:32:47;;;;;;;3.08;1.10;;;18.30;39.10;;;;;;5071227;28;20716;-61
2023/02/25 02:35:20;;;;;;;2.47;1.10;;;18.30;39.10;;;;;;5072832;28;20186;-61
2023/02/25 02:37:57;;;;;;;4.25;1.38;;;18.30;39.10;;;;;;5072350;28;20634;-59
2023/02/25 02:40:36;;;;;;;3.50;1.10;;;18.30;39.10;;;;;;5072144;28;20193;-62
2023/02/25 02:43:10;;;;;;;4.82;1.30;;;18.30;39.10;;;;;;5072345;28;20214;-60
2023/02/25 02:45:43;;;;;;;4.78;1.55;;;18.30;39.10;;;;;;5071578;28;20607;-63
2023/02/25 02:48:17;;;;;;;3.10;1.17;;;18.30;39.00;;;;;;5072529;28;20214;-65
2023/02/25 02:50:47;;;;;;;2.15;1.15;;;18.30;39.10;;;;;;5072481;28;20195;-62
2023/02/25 02:53:20;;;;;;;2.20;1.17;;;18.20;39.00;;;;;;5072488;28;20277;-67
2023/02/25 02:55:55;;;;;;;3.08;1.20;;;18.20;38.90;;;;;;5072449;28;20191;-62
2023/02/25 02:58:26;;;;;;;4.90;1.38;;;18.30;39.00;;;;;;5071920;28;20752;-62
2023/02/25 03:00:59;;;;;;;2.38;1.30;;;18.20;38.90;;;;;;5071599;28;20245;-62
2023/02/25 03:03:35;;;;;;;4.20;1.40;;;18.20;38.90;;;;;;5072272;28;20223;-62
2023/02/25 03:06:05;;;;;;;2.97;1.50;;;18.20;38.90;;;;;;5071981;28;20240;-65
2023/02/25 03:08:35;;;;;;;4.55;1.20;;;18.20;38.90;;;;;;5072184;28;20268;-60
2023/02/25 03:11:04;;;;;;;4.18;1.42;;;18.20;38.90;;;;;;5072254;28;20198;-61
2023/02/25 03:13:31;;;;;;;5.45;1.30;;;18.20;38.90;;;;;;5071796;28;20253;-60
2023/02/25 03:16:00;;;;;;;4.30;1.23;;;18.20;38.90;;;;;;5071445;28;20191;-62
2023/02/25 03:18:35;;;;;;;2.42;1.23;;;18.20;38.80;;;;;;5071826;28;20218;-65
2023/02/25 03:21:08;;;;;;;6.15;1.20;;;18.20;38.80;;;;;;5071783;28;20558;-60
2023/02/25 03:23:40;;;;;;;2.65;1.30;;;18.20;38.90;;;;;;5072025;28;20226;-61
2023/02/25 03:26:14;;;;;;;4.22;1.27;;;18.20;38.80;;;;;;5072154;28;20193;-61
2023/02/25 03:28:44;;;;;;;3.63;1.25;;;18.20;38.80;;;;;;5071715;28;20700;-59
2023/02/25 03:31:20;;;;;;;5.40;1.60;;;18.20;38.80;;;;;;5070955;28;20717;-60
2023/02/25 03:33:52;;;;;;;2.78;1.10;;;18.10;38.70;;;;;;5071373;28;20214;-62
2023/02/25 03:36:23;;;;;;;3.80;1.45;;;18.20;38.80;;;;;;5071650;28;20653;-60
2023/02/25 03:38:54;;;;;;;3.65;1.30;;;18.20;38.70;;;;;;5071854;28;20222;-63
2023/02/25 03:41:25;;;;;;;4.85;1.35;;;18.10;38.60;;;;;;5071931;28;20183;-60
2023/02/25 03:43:55;;;;;;;4.65;1.20;;;18.20;38.70;;;;;;5071728;28;20754;-61
2023/02/25 03:46:22;;;;;;;3.88;1.48;;;18.10;38.70;;;;;;5075407;28;20187;-62
2023/02/25 03:48:54;;;;;;;4.50;1.48;;;18.20;38.70;;;;;;5075890;28;20214;-63
2023/02/25 03:51:27;;;;;;;2.78;1.10;;;18.10;38.60;;;;;;5075798;28;20187;-60
2023/02/25 03:53:54;;;;;;;4.22;1.42;;;18.20;38.70;;;;;;5075707;28;20214;-63
2023/02/25 03:56:21;;;;;;;3.92;1.38;;;18.10;38.60;;;;;;5075868;28;20248;-61
2023/02/25 03:58:48;;;;;;;4.95;1.40;;;18.10;38.60;;;;;;5075646;28;20214;-65
2023/02/25 04:01:18;;;;;;;5.20;1.52;;;18.10;38.60;;;;;;5074910;28;20205;-61
2023/02/25 04:03:45;;;;;;;3.65;1.42;;;18.10;38.60;;;;;;5074892;28;20652;-60
2023/02/25 04:06:14;;;;;;;4.00;1.38;;;18.10;39.20;;;;;;5075111;28;20175;-64
2023/02/25 04:08:42;;;;;;;6.40;1.40;;;18.10;38.60;;;;;;5075549;28;20570;-60
2023/02/25 04:11:09;;;;;;;4.20;1.10;;;18.10;38.60;;;;;;5075520;28;20190;-67
2023/02/25 04:13:36;;;;;;;5.10;1.20;;;18.10;38.50;;;;;;5075357;28;20272;-60
2023/02/25 04:16:03;;;;;;;5.00;1.27;;;18.10;38.50;;;;;;5074697;28;20191;-60
2023/02/25 04:18:30;;;;;;;2.75;1.20;;;18.10;38.50;;;;;;5075289;28;20222;-59
2023/02/25 04:20:57;;;;;;;5.45;1.48;;;18.10;38.40;;;;;;5075002;28;20227;-60
2023/02/25 04:23:26;;;;;;;3.30;1.10;;;18.10;38.40;;;;;;5075488;28;20268;-60
2023/02/25 04:25:53;;;;;;;4.82;1.60;;;18.10;38.40;;;;;;5075134;28;20187;-61
2023/02/25 04:28:20;;;;;;;3.25;1.42;;;18.10;38.40;;;;;;5075185;28;20215;-63
2023/02/25 04:30:47;;;;;;;6.45;1.40;;;18.10;38.40;;;;;;5074692;28;20191;-60
2023/02/25 04:33:14;;;;;;;3.17;1.10;;;18.00;38.30;;;;;;5075190;28;20272;-61
2023/02/25 04:35:41;;;;;;;6.95;1.75;;;18.10;38.30;;;;;;5075035;28;20260;-63
2023/02/25 04:38:08;;;;;;;4.63;1.40;;;18.00;38.30;;;;;;5074917;28;20211;-60
2023/02/25 04:40:37;;;;;;;4.00;1.30;;;18.00;38.30;;;;;;5074748;28;20190;-60
2023/02/25 04:43:04;;;;;;;3.35;1.45;;;18.00;38.20;;;;;;5075154;28;20250;-64
2023/02/25 04:45:31;;;;;;;4.25;1.20;;;18.00;38.30;;;;;;5074287;28;20219;-71
2023/02/25 04:47:58;;;;;;;2.70;1.20;;;18.00;38.20;;;;;;5074927;28;20218;-71
2023/02/25 04:50:26;;;;;;;5.40;1.02;;;18.00;38.30;;;;;;5075003;28;20240;-67
2023/02/25 04:52:53;;;;;;;3.63;1.30;;;18.00;38.20;;;;;;5074381;28;20214;-67
2023/02/25 04:55:20;;;;;;;4.88;1.50;;;18.00;38.20;;;;;;5074764;28;20194;-71
2023/02/25 04:57:48;;;;;;;5.55;1.35;;;18.00;38.20;;;;;;5074197;28;20222;-63
2023/02/25 05:00:18;;;;;;;4.28;1.38;;;18.00;38.20;;;;;;5073824;28;20241;-60
2023/02/25 05:02:47;;;;;;;4.25;1.48;;;18.00;38.10;;;;;;5074507;28;20237;-71
2023/02/25 05:05:14;;;;;;;3.50;1.58;;;18.00;38.10;;;;;;5074612;28;20219;-65
2023/02/25 05:07:41;;;;;;;5.60;1.55;;;18.00;38.10;;;;;;5074211;28;20276;-71
2023/02/25 05:10:11;;;;;;;3.60;1.30;;;18.00;38.10;;;;;;5074360;28;20241;-72
2023/02/25 05:12:38;;;;;;;4.95;1.35;;;18.00;38.20;;;;;;5074134;28;20219;-70
2023/02/25 05:15:08;;;;;;;4.70;1.40;;;18.00;38.10;;;;;;5073527;28;20664;-64
2023/02/25 05:17:35;;;;;;;5.43;1.65;;;18.00;38.10;;;;;;5074379;28;20215;-66
2023/02/25 05:20:06;;;;;;;3.83;1.30;;;17.90;38.00;;;;;;5074078;28;20701;-68
2023/02/25 05:22:33;;;;;;;6.45;1.42;;;18.00;38.10;;;;;;5073958;28;20762;-68
2023/02/25 05:25:00;;;;;;;5.15;1.35;;;18.00;38.10;;;;;;5074293;28;20223;-70
2023/02/25 05:27:27;;;;;;;7.30;1.60;;;17.90;38.00;;;;;;5073836;28;20211;-64
2023/02/25 05:29:54;;;;;;;2.60;1.20;;;18.00;38.10;;;;;;5073567;28;20193;-70
2023/02/25 05:32:23;;;;;;;3.50;1.45;;;17.90;38.00;;;;;;5074088;28;20611;-60
2023/02/25 05:34:50;;;;;;;3.60;1.63;;;17.90;38.00;;;;;;5074174;28;20191;-72
2023/02/25 05:37:17;;;;;;;5.20;1.50;;;17.90;38.00;;;;;;5073771;28;20210;-67
2023/02/25 05:39:44;;;;;;;4.38;1.58;;;17.90;38.00;;;;;;5073860;28;20195;-71
2023/02/25 05:42:11;;;;;;;3.60;1.40;;;17.90;38.00;;;;;;5073679;28;20222;-71
2023/02/25 05:44:38;;;;;;;5.25;1.48;;;17.90;37.90;;;;;;5073073;28;20214;-69
2023/02/25 05:47:06;;;;;;;3.80;1.45;;;17.90;38.00;;;;;;5073822;28;20236;-71
2023/02/25 05:49:34;;;;;;;4.03;1.52;;;18.00;37.90;;;;;;5074009;28;20199;-71
2023/02/25 05:52:01;;;;;;;6.00;1.30;;;18.00;37.90;;;;;;5073589;28;20260;-70
2023/02/25 05:54:28;;;;;;;7.20;1.70;;;18.00;37.90;;;;;;5073437;28;20190;-64
2023/02/25 05:56:55;;;;;;;3.72;1.52;;;18.00;37.90;;;;;;5073648;28;20187;-63
2023/02/25 05:59:23;;;;;;;3.55;1.30;;;18.10;37.90;;;;;;5072928;28;20187;-65
2023/02/25 06:01:50;;;;;;;4.25;1.60;;;18.10;37.80;;;;;;5073228;28;20734;-70
2023/02/25 06:04:17;;;;;;;4.03;1.40;;;18.20;37.80;;;;;;5073264;28;20227;-62
2023/02/25 06:06:49;;;;;;;4.60;1.35;;;18.20;37.80;;;;;;5073207;28;20655;-61
2023/02/25 06:09:17;;;;;;;2.42;1.30;;;18.20;37.80;;;;;;5072448;28;20218;-63
2023/02/25 06:11:46;;;;;;;4.60;1.70;;;18.30;37.70;;;;;;5073226;28;20241;-64
2023/02/25 06:14:13;;;;;;;4.20;1.60;;;18.40;37.80;;;;;;5072646;28;20222;-62
2023/02/25 06:16:41;;;;;;;4.28;1.30;;;18.40;37.60;;;;;;5073012;28;20213;-63
2023/02/25 06:19:09;;;;;;;2.28;1.30;;;18.40;37.70;;;;;;5072696;28;20234;-62
2023/02/25 06:21:36;;;;;;;4.75;1.58;;;18.40;37.60;;;;;;5073008;28;20727;-68
2023/02/25 06:24:06;;;;;;;3.55;1.38;;;18.50;37.60;;;;;;5073142;28;20218;-61
2023/02/25 06:26:34;;;;;;;4.32;1.63;;;18.50;37.60;;;;;;5072886;28;20183;-60
2023/02/25 06:29:01;;;;;;;4.30;1.65;;;18.60;37.50;;;;;;5072346;28;20222;-60
2023/02/25 06:31:28;;;;;;;3.13;1.50;;;18.60;37.50;;;;;;5072653;28;20749;-60
2023/02/25 06:33:55;;;;;;;3.00;1.40;;;18.60;37.50;;;;;;5072472;28;20638;-61
2023/02/25 06:36:22;;;;;;;4.80;1.30;;;18.70;37.50;;;;;;5072966;28;20190;-59
2023/02/25 06:38:49;;;;;;;5.25;1.90;;;18.70;37.50;;;;;;5072939;28;20218;-65
2023/02/25 06:41:21;;;;;;;5.97;1.30;;;18.80;37.50;;;;;;5072729;28;20194;-63
2023/02/25 06:43:50;;;;;;;4.13;1.65;;;18.80;37.50;;;;;;5072110;28;20214;-62
2023/02/25 06:46:19;;;;;;;4.53;1.55;;;18.80;37.40;;;;;;5072786;28;20219;-63
2023/02/25 06:48:47;;;;;;;3.22;1.42;;;18.80;37.40;;;;;;5072575;28;20272;-66
2023/02/25 06:51:14;;;;;;;2.28;1.20;;;18.90;37.40;;;;;;5072326;28;20187;-60
2023/02/25 06:53:42;;;;;;;5.07;1.42;;;18.90;37.40;;;;;;5072234;28;20226;-65
2023/02/25 06:56:11;;;;;;;2.88;1.13;;;18.90;37.40;;;;;;5072623;28;20191;-71
2023/02/25 06:58:40;;;;;;;4.40;1.40;;;18.90;37.30;;;;;;5072023;28;20218;-66
2023/02/25 07:01:08;;;;;;;5.18;1.50;;;19.00;37.40;;;;;;5072546;28;20191;-60
2023/02/25 07:03:36;;;;;;;5.15;1.55;;;19.00;37.30;;;;;;5072090;28;20600;-64
2023/02/25 07:06:04;;;;;;;4.78;1.40;;;19.00;37.30;;;;;;5072366;28;20211;-60
2023/02/25 07:08:32;;;;;;;4.82;1.50;;;19.00;37.20;;;;;;5072323;28;20276;-60
2023/02/25 07:11:10;;;;;;;2.72;1.20;;;19.10;37.30;;;;;;5072154;28;20595;-60
2023/02/25 07:13:39;;;;;;;6.38;1.85;;;19.10;37.30;;;;;;5071966;28;20268;-60
2023/02/25 07:16:06;;;;;;;4.30;1.52;;;19.10;37.20;;;;;;5071978;28;20774;-63
2023/02/25 07:18:33;;;;;;;6.07;1.58;;;19.10;37.20;;;;;;5072404;28;20215;-65
2023/02/25 07:21:00;;;;;;;4.13;1.23;;;19.10;37.10;;;;;;5071911;28;20209;-63
2023/02/25 07:23:27;;;;;;;3.95;1.70;;;19.20;37.10;;;;;;5072208;28;20223;-62
2023/02/25 07:25:54;;;;;;;4.72;1.70;;;19.20;37.10;;;;;;5071949;28;20652;-62
2023/02/25 07:28:21;;;;;;;3.72;1.73;;;19.20;37.10;;;;;;5071797;28;20221;-61
2023/02/25 07:30:50;;;;;;;4.05;1.40;;;19.20;37.10;;;;;;5072298;28;20190;-65
2023/02/25 07:33:17;;;;;;;4.53;1.45;;;19.20;37.00;;;;;;5071677;28;20210;-67
2023/02/25 07:35:44;;;;;;;4.82;1.50;;;19.20;36.90;;;;;;5071776;28;20187;-63
2023/02/25 07:38:11;;;;;;;5.75;1.52;;;19.20;36.70;;;;;;5072081;28;20292;-65
2023/02/25 07:40:40;;;;;;;5.78;1.42;;;19.30;36.90;;;;;;5071534;28;20278;-63
2023/02/25 07:43:09;;;;;;;5.28;1.45;;;19.30;36.90;;;;;;5072056;28;20218;-65
2023/02/25 07:45:36;;;;;;;5.25;1.67;;;19.30;36.80;;;;;;5071438;28;20218;-65
2023/02/25 07:48:05;;;;;;;6.43;1.65;;;19.30;36.80;;;;;;5071724;28;20244;-60
2023/02/25 07:50:32;;;;;;;4.10;1.50;;;19.30;36.80;;;;;;5071716;28;20191;-66
2023/02/25 07:52:59;;;;;;;7.03;1.77;;;19.30;36.80;;;;;;5071519;28;20703;-66
2023/02/25 07:55:26;;;;;;;4.32;1.58;;;19.40;36.90;;;;;;5071646;28;20191;-65
2023/02/25 07:57:54;;;;;;;4.13;1.30;;;19.40;36.80;;;;;;5071825;28;20288;-62
2023/02/25 08:00:21;;;;;;;3.05;1.35;;;19.40;36.80;;;;;;5071306;28;20190;-61
2023/02/25 08:02:48;;;;;;;5.75;1.45;;;19.40;36.80;;;;;;5071814;28;20272;-63
2023/02/25 08:05:20;;;;;;;6.68;1.65;;;19.40;36.80;;;;;;5071514;28;20264;-62
2023/02/25 08:07:47;;;;;;;6.78;1.55;;;19.40;36.80;;;;;;5071935;28;20215;-68
2023/02/25 08:10:14;;;;;;;3.83;1.33;;;19.40;36.80;;;;;;5071492;28;20191;-61
2023/02/25 08:12:41;;;;;;;5.45;1.27;;;19.40;36.70;;;;;;5071842;28;20219;-60
2023/02/25 08:15:09;;;;;;;5.53;1.27;;;19.40;36.70;;;;;;5070911;28;20187;-64
2023/02/25 08:17:36;;;;;;;5.80;1.40;;;19.40;36.70;;;;;;5071762;28;20214;-61
2023/02/25 08:20:05;;;;;;;4.68;1.60;;;19.40;36.70;;;;;;5071411;28;20288;-63
2023/02/25 08:22:33;;;;;;;5.47;1.40;;;19.40;36.70;;;;;;5071315;28;20222;-61
2023/02/25 08:25:00;;;;;;;5.85;1.48;;;19.40;36.60;;;;;;5071666;28;20268;-67
2023/02/25 08:27:27;;;;;;;3.78;1.25;;;19.40;36.60;;;;;;5071546;28;20195;-63
2023/02/25 08:29:55;;;;;;;5.00;1.40;;;19.40;36.60;;;;;;5070892;28;20248;-63
2023/02/25 08:32:24;;;;;;;7.95;1.55;;;19.40;36.60;;;;;;5074051;28;20274;-64
2023/02/25 08:34:51;;;;;;;3.08;1.45;;;19.40;36.60;;;;;;5075343;28;20265;-62
2023/02/25 08:37:20;;;;;;;4.53;1.52;;;19.40;37.30;;;;;;5075133;28;20183;-60
2023/02/25 08:39:48;;;;;;;5.22;1.58;;;19.40;36.60;;;;;;5074813;28;20194;-71
2023/02/25 08:42:17;;;;;;;3.67;1.20;;;19.50;36.70;;;;;;5074669;28;20665;-68
2023/02/25 08:44:45;;;;;;;4.70;1.83;;;19.50;36.60;;;;;;5074235;28;20187;-63
2023/02/25 08:47:12;;;;;;;3.67;1.50;;;19.50;36.70;;;;;;5074491;28;20676;-68
2023/02/25 08:49:39;;;;;;;5.15;1.83;;;19.50;36.60;;;;;;5074798;28;20240;-62
2023/02/25 08:52:08;;;;;;;5.10;1.15;;;19.50;36.60;;;;;;5066000;28;20202;-66
2023/02/25 08:54:36;;;;;;;5.82;1.45;;;19.50;36.60;;;;;;5054614;28;20311;-62
2023/02/25 08:57:04;;;;;;;10.30;1.90;;;19.50;36.60;;;;;;5054194;28;20245;-64
2023/02/25 08:59:34;;;;;;;4.53;1.42;;;19.50;36.60;;;;;;5054136;28;20318;-67
2023/02/25 09:02:01;;;;;;;6.32;1.50;;;19.50;36.60;;;;;;5060720;28;20273;-65
2023/02/25 09:04:29;;;;;;;4.78;1.80;;;19.50;36.50;;;;;;5069945;28;20272;-69
2023/02/25 09:06:57;;;;;;;4.80;1.52;;;19.50;36.50;;;;;;5073533;28;20214;-64
2023/02/25 09:09:25;;;;;;;5.93;1.50;;;19.50;36.40;;;;;;5067618;28;20306;-69
2023/02/25 09:11:53;;;;;;;5.03;1.50;;;19.50;37.10;;;;;;5060535;28;20579;-61
2023/02/25 09:14:22;;;;;;;4.25;1.40;;;19.60;36.60;;;;;;5066521;28;20631;-68
2023/02/25 09:16:49;;;;;;;5.43;1.33;;;19.50;36.40;;;;;;5073675;28;20191;-66
2023/02/25 09:19:17;;;;;;;5.95;1.65;;;19.60;36.50;;;;;;5057934;28;20235;-69
2023/02/25 09:21:46;;;;;;;4.15;1.40;;;19.50;36.40;;;;;;5064334;28;20294;-68
2023/02/25 09:24:14;;;;;;;7.68;1.90;;;19.60;36.50;;;;;;5058099;28;20326;-71
2023/02/25 09:26:42;;;;;;;7.85;1.67;;;19.60;36.30;;;;;;5071064;28;20223;-67
2023/02/25 09:29:09;;;;;;;8.27;1.50;;;19.60;36.10;;;;;;5066690;28;20276;-62
2023/02/25 09:31:38;;;;;;;7.75;1.63;;;19.50;36.70;;;;;;5073667;28;20198;-70
2023/02/25 09:34:07;;;;;;;7.25;1.80;;;19.50;36.10;;;;;;5073728;28;20218;-62
2023/02/25 09:36:35;;;;;;;5.80;1.55;;;19.50;36.20;;;;;;5073805;28;20199;-67
2023/02/25 09:39:06;;;;;;;7.45;1.92;;;19.50;36.00;;;;;;5073387;28;20210;-63
2023/02/25 09:41:37;;;;;;;7.70;1.50;;;19.50;36.00;;;;;;5073118;28;20195;-67
2023/02/25 09:44:07;;;;;;;7.30;1.70;;;19.50;36.00;;;;;;5072238;28;20731;-68
2023/02/25 09:46:40;;;;;;;4.22;1.70;;;19.60;36.20;;;;;;5073210;28;20832;-68
2023/02/25 09:49:14;;;;;;;5.72;1.50;;;19.60;36.10;;;;;;5073210;28;20214;-63
2023/02/25 09:51:46;;;;;;;4.68;1.20;;;19.60;36.10;;;;;;5073360;28;20187;-64
2023/02/25 09:54:21;;;;;;;9.30;2.00;;;19.60;36.10;;;;;;5073498;28;20222;-63
2023/02/25 09:56:49;;;;;;;6.88;2.05;;;19.60;36.10;;;;;;5073138;28;20277;-68
2023/02/25 09:59:20;;;;;;;5.38;2.00;;;19.60;36.10;;;;;;5072529;28;20264;-69
2023/02/25 10:01:56;;;;;;;9.73;2.80;;;19.70;36.20;;;;;;5061941;28;20195;-63
2023/02/25 10:04:30;;;;;;;6.55;2.63;;;19.60;36.10;;;;;;5066668;28;20218;-64
2023/02/25 10:07:05;;;;;;;8.38;2.70;;;19.60;36.10;;;;;;5072956;28;20210;-70
2023/02/25 10:09:44;;;;;;;6.50;1.88;;;19.60;36.10;;;;;;5073381;28;20222;-67
2023/02/25 10:12:21;;;;;;;5.70;2.13;;;19.60;36.10;;;;;;5072908;28;20186;-64
2023/02/25 10:15:14;;;;;;;7.55;2.08;;;19.60;36.10;;;;;;5072912;28;20210;-65
2023/02/25 10:17:55;;;;;;;7.97;1.80;;;19.60;36.10;;;;;;5072459;28;20569;-64
2023/02/25 10:20:56;;;;;;;7.72;1.80;;;19.60;36.10;;;;;;5072156;28;20258;-63
2023/02/25 10:23:55;;;;;;;7.97;2.00;;;19.60;36.10;;;;;;5072188;28;20206;-63
2023/02/25 10:26:25;;;;;;;7.57;2.25;;;19.70;36.20;;;;;;5072517;28;20222;-62
2023/02/25 10:28:56;;;;;;;6.00;2.10;;;19.70;36.20;;;;;;5071560;28;20271;-61
2023/02/25 10:31:23;;;;;;;5.07;2.75;;;19.70;36.20;;;;;;5072273;28;20191;-59
2023/02/25 10:33:53;;;;;;;9.45;4.00;;;19.70;36.20;;;;;;5072399;28;20587;-59
2023/02/25 10:36:26;;;;;;;10.80;4.20;;;19.70;36.20;;;;;;5072122;28;20649;-65
2023/02/25 10:38:54;;;;;;;15.73;4.50;;;19.70;36.20;;;;;;5071903;28;20214;-63
2023/02/25 10:41:25;;;;;;;11.30;4.00;;;19.70;36.10;;;;;;5071809;28;20194;-65
2023/02/25 10:43:53;;;;;;;12.13;3.90;;;19.80;36.20;;;;;;5071263;28;20700;-62
2023/02/25 10:46:26;;;;;;;7.80;3.80;;;19.70;36.20;;;;;;5071723;28;20591;-65
2023/02/25 10:48:58;;;;;;;12.07;3.95;;;19.80;36.20;;;;;;5072164;28;20264;-63
2023/02/25 10:51:27;;;;;;;10.95;2.90;;;19.80;36.90;;;;;;5072006;28;20202;-66
2023/02/25 10:54:05;;;;;;;10.27;3.30;;;19.80;36.20;;;;;;5071338;28;20218;-64
2023/02/25 10:56:41;;;;;;;14.00;3.83;;;19.80;36.20;;;;;;5071997;28;20277;-67
2023/02/25 10:59:23;;;;;;;11.98;2.83;;;19.80;36.10;;;;;;5071012;28;20229;-63
2023/02/25 11:01:50;;;;;;;17.30;3.45;;;19.80;36.20;;;;;;5070902;28;20183;-60
2023/02/25 11:04:23;;;;;;;11.05;3.67;;;19.80;36.20;;;;;;5071714;28;20272;-65
2023/02/25 11:06:50;;;;;;;8.73;2.65;;;19.80;36.20;;;;;;5071483;28;20218;-61
2023/02/25 11:09:35;;;;;;;6.65;2.67;;;19.80;36.20;;;;;;5071915;28;20226;-60
2023/02/25 11:12:17;;;;;;;8.70;2.60;;;19.80;36.20;;;;;;5071038;28;20648;-61
2023/02/25 11:14:44;;;;;;;9.60;2.67;;;19.90;36.30;;;;;;5071743;28;20215;-61
2023/02/25 11:17:19;;;;;;;8.05;3.13;;;19.90;36.30;;;;;;5071834;28;20264;-61
2023/02/25 11:19:50;;;;;;;7.93;2.50;;;19.90;36.20;;;;;;5071396;28;20230;-59
2023/02/25 11:22:21;;;;;;;10.23;2.72;;;19.90;36.20;;;;;;5071413;28;20255;-62
2023/02/25 11:24:58;;;;;;;8.25;2.15;;;19.90;36.10;;;;;;5071620;28;20218;-68
2023/02/25 11:27:32;;;;;;;9.55;2.10;;;19.90;35.90;;;;;;5071017;28;20225;-63
2023/02/25 11:30:05;;;;;;;17.02;2.72;;;19.90;35.60;;;;;;5071574;28;20272;-63
2023/02/25 11:32:33;;;;;;;11.68;2.30;;;19.90;35.50;;;;;;5071236;28;20274;-66
2023/02/25 11:35:07;;;;;;;6.55;2.58;;;19.90;35.50;;;;;;5071772;28;20527;-60
2023/02/25 11:37:37;;;;;;;8.80;2.38;;;19.90;35.80;;;;;;5071452;28;20196;-64
2023/02/25 11:40:22;;;;;;;7.75;2.50;;;20.00;35.90;;;;;;5071555;28;20218;-60
2023/02/25 11:43:15;;;;;;;10.05;2.20;;;20.00;36.00;;;;;;5070523;28;20198;-61
2023/02/25 11:45:54;;;;;;;11.85;2.00;;;20.10;36.20;;;;;;5071649;28;20607;-60
2023/02/25 11:48:24;;;;;;;9.25;2.40;;;20.10;36.30;;;;;;5071136;28;20271;-63
2023/02/25 11:51:00;;;;;;;5.72;1.80;;;20.20;36.50;;;;;;5071229;28;20190;-62
2023/02/25 11:53:37;;;;;;;8.25;2.50;;;20.20;36.50;;;;;;5071484;28;20654;-63
2023/02/25 11:56:10;;;;;;;8.18;2.40;;;20.30;36.60;;;;;;5071265;28;20256;-60
2023/02/25 11:58:50;;;;;;;7.05;2.28;;;20.30;36.70;;;;;;5070472;28;20250;-63
2023/02/25 12:01:24;;;;;;;11.07;2.60;;;20.40;36.70;;;;;;5070579;28;20564;-62
2023/02/25 12:04:28;;;;;;;7.30;1.88;;;20.40;36.70;;;;;;5070734;28;20707;-64
2023/02/25 12:07:12;;;;;;;12.00;2.13;;;20.40;36.70;;;;;;5072922;28;20753;-64
2023/02/25 12:10:15;;;;;;;6.22;2.13;;;20.50;36.80;;;;;;5075324;28;20241;-62
2023/02/25 12:13:27;;;;;;;7.50;2.25;;;20.50;36.70;;;;;;5074359;28;20187;-59
2023/02/25 12:16:23;;;;;;;10.57;2.00;;;20.60;36.90;;;;;;5074918;28;20264;-64
2023/02/25 12:19:22;;;;;;;6.95;2.10;;;20.60;36.90;;;;;;5074676;28;20219;-61
2023/02/25 12:22:32;;;;;;;9.23;2.22;;;20.60;36.70;;;;;;5074489;28;20691;-65
2023/02/25 12:25:11;;;;;;;9.55;2.22;;;20.60;36.60;;;;;;5036592;28;20218;-59
2023/02/25 12:28:19;;;;;;;6.60;2.28;;;20.60;36.50;;;;;;5074142;28;20302;-63
2023/02/25 12:31:12;;;;;;;10.77;2.10;;;20.50;36.40;;;;;;5074397;28;20240;-65
2023/02/25 12:34:04;;;;;;;8.13;2.25;;;20.50;36.30;;;;;;5074814;28;20218;-63
2023/02/25 12:36:47;;;;;;;4.07;1.75;;;20.50;36.20;;;;;;5074000;28;20237;-65
2023/02/25 12:39:43;;;;;;;10.02;2.30;;;20.50;36.20;;;;;;5074471;28;20253;-66
2023/02/25 12:42:32;;;;;;;8.90;2.38;;;20.50;36.40;;;;;;5069986;28;20871;-65
2023/02/25 12:45:22;;;;;;;7.90;2.42;;;20.40;36.30;;;;;;5074303;28;20222;-63
2023/02/25 12:48:13;;;;;;;6.35;2.42;;;20.40;36.20;;;;;;5079483;28;20227;-60
2023/02/25 12:50:56;;;;;;;7.18;2.10;;;20.40;36.20;;;;;;5060329;28;20203;-61
2023/02/25 12:53:38;;;;;;;9.93;2.20;;;20.40;36.20;;;;;;5073703;28;20227;-62
2023/02/25 12:56:29;;;;;;;8.73;2.25;;;20.40;36.10;;;;;;5070100;28;20207;-62
2023/02/25 12:59:14;;;;;;;9.20;2.40;;;20.40;35.90;;;;;;5061943;28;20238;-62
2023/02/25 13:02:02;;;;;;;8.68;2.20;;;20.30;35.80;;;;;;5065864;28;20268;-63
2023/02/25 13:04:58;;;;;;;10.50;2.75;;;20.20;35.60;;;;;;5061932;28;20223;-64
2023/02/25 13:07:50;;;;;;;9.50;2.15;;;20.20;35.50;;;;;;5063060;28;20713;-69
2023/02/25 13:10:46;;;;;;;12.05;2.40;;;20.20;35.60;;;;;;5062973;28;20219;-65